Time;durP1;ratioP1;P1;durP2;ratioP2;P2;SDS_P1;SDS_P2;PMS_P1;PMS_P2;Temp;Humidity;BMP_temperature;BMP_pressure;BME280_temperature;BME280_humidity;BME280_pressure;Samples;Min_cycle;Max_cycle;Signal;HPM_P1;HPM_P2
2024/04/10 00:00:18;;;;;;;6.33;2.37;;;10.20;99.90;;;;;;5469578;26;20483;-82
2024/04/10 00:03:05;;;;;;;4.30;2.10;;;10.20;99.90;;;;;;5472100;26;20519;-82
2024/04/10 00:06:03;;;;;;;3.80;1.93;;;10.20;99.90;;;;;;5477401;26;20583;-83
2024/04/10 00:08:49;;;;;;;7.73;2.07;;;10.20;99.90;;;;;;5474431;26;21476;-82
2024/04/10 00:11:36;;;;;;;6.33;1.70;;;10.20;99.90;;;;;;5484632;26;20517;-82
2024/04/10 00:14:23;;;;;;;8.70;2.50;;;10.20;99.90;;;;;;5468945;26;20502;-81
2024/04/10 00:17:10;;;;;;;6.53;2.00;;;10.00;99.90;;;;;;5477444;26;20506;-83
2024/04/10 00:19:55;;;;;;;6.43;1.80;;;10.00;99.90;;;;;;5474194;26;20501;-81
2024/04/10 00:22:42;;;;;;;6.77;2.13;;;10.00;99.90;;;;;;5480356;26;20486;-81
2024/04/10 00:25:27;;;;;;;9.63;2.00;;;9.90;99.90;;;;;;5462628;26;20889;-81
2024/04/10 00:28:15;;;;;;;6.57;1.73;;;9.80;99.90;;;;;;5465972;26;20506;-83
2024/04/10 00:31:07;;;;;;;7.20;2.07;;;9.80;99.90;;;;;;5485360;26;20577;-82
2024/04/10 00:33:54;;;;;;;3.83;1.93;;;9.80;99.90;;;;;;5472612;26;20511;-82
2024/04/10 00:36:39;;;;;;;7.67;2.90;;;9.80;99.90;;;;;;5470616;26;20644;-81
2024/04/10 00:39:27;;;;;;;6.03;1.87;;;9.80;99.90;;;;;;5485027;26;20522;-81
2024/04/10 00:42:12;;;;;;;7.27;2.00;;;9.70;99.90;;;;;;5485674;26;20513;-80
2024/04/10 00:45:00;;;;;;;5.80;1.43;;;9.70;99.90;;;;;;5476954;26;20574;-82
2024/04/10 00:47:49;;;;;;;7.83;1.70;;;9.70;99.90;;;;;;5480772;26;20528;-83
2024/04/10 00:50:36;;;;;;;4.50;1.37;;;9.80;99.90;;;;;;5480134;25;20611;-82
2024/04/10 00:53:21;;;;;;;6.20;2.20;;;9.80;99.90;;;;;;5485083;26;20563;-83
2024/04/10 00:56:10;;;;;;;6.17;1.90;;;9.80;99.90;;;;;;5479538;26;20563;-81
2024/04/10 00:59:00;;;;;;;5.70;2.00;;;9.90;99.90;;;;;;5478554;26;20505;-82
2024/04/10 01:01:47;;;;;;;5.67;1.83;;;10.00;99.90;;;;;;5484624;26;20553;-82
2024/04/10 01:04:34;;;;;;;4.50;1.43;;;10.00;99.90;;;;;;5485520;26;20913;-81
2024/04/10 01:07:22;;;;;;;3.47;1.67;;;10.00;99.90;;;;;;5492469;26;20547;-81
2024/04/10 01:10:07;;;;;;;3.67;1.40;;;10.00;99.90;;;;;;5493475;26;20517;-83
2024/04/10 01:12:54;;;;;;;4.77;1.70;;;10.00;99.90;;;;;;5476404;26;20480;-82
2024/04/10 01:15:38;;;;;;;5.20;1.90;;;10.10;99.90;;;;;;5475034;26;20508;-82
2024/04/10 01:18:26;;;;;;;5.07;1.40;;;10.20;99.90;;;;;;5483994;25;20582;-83
2024/04/10 01:21:14;;;;;;;4.67;1.67;;;10.20;99.90;;;;;;5478114;26;20476;-82
2024/04/10 01:24:03;;;;;;;4.97;1.40;;;10.20;99.90;;;;;;5479361;26;20912;-82
2024/04/10 01:26:48;;;;;;;5.77;1.97;;;10.20;99.90;;;;;;5473070;26;20516;-81
2024/04/10 01:29:36;;;;;;;5.63;1.87;;;10.20;99.90;;;;;;5472087;26;20515;-81
2024/04/10 01:32:21;;;;;;;8.97;1.90;;;10.20;99.90;;;;;;5492577;26;20540;-81
2024/04/10 01:35:08;;;;;;;5.13;2.00;;;10.30;99.70;;;;;;5498060;26;20559;-81
2024/04/10 01:37:53;;;;;;;6.73;1.83;;;10.40;99.00;;;;;;5501137;26;20500;-82
2024/04/10 01:40:43;;;;;;;7.47;1.73;;;10.40;99.80;;;;;;5498248;26;20513;-83
2024/04/10 01:43:28;;;;;;;4.90;1.80;;;10.40;99.00;;;;;;5494766;26;20539;-81
2024/04/10 01:46:15;;;;;;;12.00;2.63;;;10.50;99.10;;;;;;5492999;26;20540;-82
2024/04/10 01:49:00;;;;;;;4.03;1.70;;;10.50;97.90;;;;;;5470312;26;21105;-82
2024/04/10 01:51:47;;;;;;;6.50;1.50;;;10.60;96.90;;;;;;5476401;26;20497;-82
2024/04/10 01:54:35;;;;;;;11.37;1.70;;;10.60;95.70;;;;;;5468408;26;20519;-82
2024/04/10 01:57:22;;;;;;;8.23;1.57;;;10.60;96.30;;;;;;5469840;26;20557;-82
2024/04/10 02:00:11;;;;;;;6.87;1.90;;;10.50;97.10;;;;;;5492975;26;20522;-82
2024/04/10 02:02:59;;;;;;;9.10;2.23;;;10.40;95.60;;;;;;5493416;26;20548;-80
2024/04/10 02:05:43;;;;;;;7.40;1.90;;;10.40;95.80;;;;;;5507454;26;20517;-83
2024/04/10 02:08:31;;;;;;;6.40;2.10;;;10.40;95.60;;;;;;5501695;25;20952;-82
2024/04/10 02:11:25;;;;;;;8.87;2.43;;;10.30;95.90;;;;;;5486299;26;20480;-82
2024/04/10 02:14:15;;;;;;;9.10;2.10;;;10.30;96.30;;;;;;5486758;26;20523;-83
2024/04/10 02:16:59;;;;;;;9.17;2.10;;;10.30;96.40;;;;;;5493805;26;20489;-83
2024/04/10 02:19:46;;;;;;;11.73;2.23;;;10.30;96.80;;;;;;5485925;26;20477;-81
2024/04/10 02:22:31;;;;;;;4.03;1.80;;;10.20;96.40;;;;;;5498022;26;20564;-81
2024/04/10 02:25:20;;;;;;;6.10;2.00;;;10.20;95.60;;;;;;5485508;26;20514;-83
2024/04/10 02:28:04;;;;;;;7.00;1.77;;;10.20;96.60;;;;;;5481059;26;20491;-82
2024/04/10 02:30:54;;;;;;;5.40;1.57;;;10.20;96.10;;;;;;5494633;26;20475;-82
2024/04/10 02:33:40;;;;;;;5.87;1.67;;;10.10;96.90;;;;;;5485927;26;20838;-82
2024/04/10 02:36:27;;;;;;;6.47;2.10;;;10.00;95.80;;;;;;5488604;26;21195;-80
2024/04/10 02:39:11;;;;;;;5.67;3.07;;;9.90;96.50;;;;;;5476257;26;20634;-81
2024/04/10 02:41:59;;;;;;;11.40;1.70;;;10.00;96.60;;;;;;5488326;26;20530;-81
2024/04/10 02:44:50;;;;;;;8.10;2.17;;;9.80;96.70;;;;;;5481638;26;20687;-81
2024/04/10 02:47:40;;;;;;;5.50;1.67;;;9.80;97.00;;;;;;5482291;26;21216;-82
2024/04/10 02:50:25;;;;;;;7.00;1.83;;;9.80;97.80;;;;;;5483354;26;20544;-82
2024/04/10 02:53:13;;;;;;;4.60;1.57;;;9.70;98.10;;;;;;5481545;26;20506;-83
2024/04/10 02:55:58;;;;;;;6.33;1.80;;;9.70;98.00;;;;;;5488517;26;20831;-79
2024/04/10 02:58:45;;;;;;;5.30;2.03;;;9.60;99.10;;;;;;5492206;26;20481;-81
2024/04/10 03:01:30;;;;;;;6.13;2.00;;;9.50;99.30;;;;;;5499325;26;20481;-81
2024/04/10 03:04:20;;;;;;;5.67;1.70;;;9.50;99.90;;;;;;5483402;26;20835;-81
2024/04/10 03:07:04;;;;;;;11.17;2.00;;;9.40;99.90;;;;;;5484965;26;20514;-81
2024/04/10 03:09:52;;;;;;;3.87;1.70;;;9.40;99.90;;;;;;5472852;26;21080;-81
2024/04/10 03:12:37;;;;;;;6.83;1.87;;;9.40;99.90;;;;;;5477523;26;20532;-82
2024/04/10 03:15:25;;;;;;;5.53;1.93;;;9.30;99.90;;;;;;5486845;26;20501;-81
2024/04/10 03:18:10;;;;;;;4.73;1.67;;;9.30;99.90;;;;;;5499786;26;20555;-81
2024/04/10 03:21:00;;;;;;;4.53;1.57;;;9.30;99.90;;;;;;5490066;26;20591;-81
2024/04/10 03:23:44;;;;;;;3.63;1.83;;;9.20;99.90;;;;;;5483730;26;20507;-81
2024/04/10 03:26:32;;;;;;;12.00;1.70;;;9.10;99.90;;;;;;5491449;26;20486;-81
2024/04/10 03:29:16;;;;;;;5.20;1.93;;;8.90;99.90;;;;;;5483600;26;20496;-81
2024/04/10 03:32:04;;;;;;;8.20;2.07;;;8.80;99.90;;;;;;5488203;26;20480;-82
2024/04/10 03:34:48;;;;;;;6.47;2.97;;;8.70;99.90;;;;;;5491364;26;20519;-81
2024/04/10 03:37:39;;;;;;;14.70;3.43;;;8.60;99.90;;;;;;5488383;26;20990;-82
2024/04/10 03:40:23;;;;;;;8.60;2.17;;;8.40;99.90;;;;;;5486773;25;20531;-82
2024/04/10 03:43:11;;;;;;;5.93;2.00;;;8.30;99.90;;;;;;5477643;26;20646;-81
2024/04/10 03:46:00;;;;;;;5.40;2.47;;;8.30;99.90;;;;;;5489103;26;20906;-82
2024/04/10 03:48:48;;;;;;;4.97;2.10;;;8.30;99.90;;;;;;5491473;26;20890;-81
2024/04/10 03:51:35;;;;;;;5.90;2.20;;;8.20;99.90;;;;;;5478464;26;20547;-79
2024/04/10 03:54:25;;;;;;;12.23;2.40;;;8.20;99.90;;;;;;5487026;26;20514;-81
2024/04/10 03:57:10;;;;;;;7.50;2.17;;;8.20;99.90;;;;;;5484325;26;20527;-82
2024/04/10 03:59:57;;;;;;;8.77;3.30;;;8.10;99.90;;;;;;5490072;26;20503;-83
2024/04/10 04:02:44;;;;;;;6.83;2.73;;;8.20;99.90;;;;;;5481237;26;20552;-82
2024/04/10 04:05:31;;;;;;;7.40;2.60;;;8.20;99.90;;;;;;5483732;26;20517;-80
2024/04/10 04:08:15;;;;;;;12.63;2.90;;;8.30;99.90;;;;;;5486409;26;20525;-80
2024/04/10 04:11:06;;;;;;;12.40;2.60;;;8.40;99.90;;;;;;5491881;26;20491;-82
2024/04/10 04:13:54;;;;;;;12.50;2.33;;;8.50;99.90;;;;;;5490037;26;20505;-82
2024/04/10 04:16:39;;;;;;;8.80;3.23;;;8.40;99.90;;;;;;5486061;26;20871;-82
2024/04/10 04:19:26;;;;;;;4.27;2.57;;;8.40;99.90;;;;;;5482483;26;22906;-81
2024/04/10 04:22:11;;;;;;;8.37;2.40;;;8.40;99.90;;;;;;5482126;26;20508;-80
2024/04/10 04:24:59;;;;;;;6.37;2.70;;;8.40;99.90;;;;;;5487250;26;20508;-82
2024/04/10 04:27:46;;;;;;;7.67;2.47;;;8.30;99.90;;;;;;5483973;26;20486;-82
2024/04/10 04:30:34;;;;;;;7.03;2.43;;;8.30;99.90;;;;;;5496416;26;20533;-80
2024/04/10 04:33:18;;;;;;;6.13;2.40;;;8.20;99.90;;;;;;5492695;26;20502;-80
2024/04/10 04:36:06;;;;;;;7.50;2.13;;;8.30;99.90;;;;;;5500351;26;20540;-82
2024/04/10 04:38:51;;;;;;;8.47;2.27;;;8.30;99.90;;;;;;5495554;25;20549;-83
2024/04/10 04:41:38;;;;;;;6.37;2.07;;;8.20;99.90;;;;;;5495747;26;20482;-83
2024/04/10 04:44:26;;;;;;;6.00;2.20;;;8.20;99.90;;;;;;5496050;26;20544;-82
2024/04/10 04:47:14;;;;;;;9.00;2.23;;;8.10;99.90;;;;;;5475495;26;20577;-82
2024/04/10 04:50:01;;;;;;;5.97;2.00;;;8.10;99.90;;;;;;5473092;26;20592;-80
2024/04/10 04:52:46;;;;;;;5.63;2.33;;;8.00;99.90;;;;;;5480317;26;20499;-83
2024/04/10 04:55:33;;;;;;;7.93;1.90;;;8.00;99.90;;;;;;5472313;26;20544;-81
2024/04/10 04:58:21;;;;;;;7.93;2.07;;;7.90;99.90;;;;;;5492679;26;20505;-83
2024/04/10 05:01:11;;;;;;;10.80;2.93;;;8.00;99.90;;;;;;5471987;26;21083;-82
2024/04/10 05:07:02;;;;;;;4.77;2.23;;;7.80;99.90;;;;;;5481296;26;20524;-82
2024/04/10 05:09:50;;;;;;;4.77;2.00;;;7.80;99.90;;;;;;5482537;26;20585;-81
2024/04/10 05:12:38;;;;;;;5.90;2.07;;;7.80;99.90;;;;;;5471271;26;20568;-81
2024/04/10 05:15:25;;;;;;;6.83;2.30;;;7.90;99.90;;;;;;5474790;26;20513;-82
2024/04/10 05:18:13;;;;;;;4.37;2.13;;;8.00;99.90;;;;;;5469940;26;20904;-82
2024/04/10 05:21:00;;;;;;;6.00;2.20;;;8.00;99.90;;;;;;5464422;26;20492;-81
2024/04/10 05:23:46;;;;;;;8.80;2.70;;;7.90;99.90;;;;;;5481482;26;20515;-82
2024/04/10 05:26:34;;;;;;;7.90;2.37;;;7.90;99.90;;;;;;5489937;26;20512;-85
2024/04/10 05:29:19;;;;;;;7.70;2.20;;;7.80;99.90;;;;;;5482324;26;20513;-83
2024/04/10 05:32:06;;;;;;;5.03;2.10;;;7.70;99.90;;;;;;5478583;26;20516;-84
2024/04/10 05:34:54;;;;;;;5.90;2.53;;;7.70;99.90;;;;;;5479720;26;20491;-83
2024/04/10 05:37:42;;;;;;;6.53;2.90;;;7.60;99.90;;;;;;5486615;26;20476;-82
2024/04/10 05:40:26;;;;;;;7.33;2.90;;;7.70;99.90;;;;;;5485268;26;22462;-83
2024/04/10 05:43:13;;;;;;;8.20;2.23;;;7.70;99.90;;;;;;5478555;26;20543;-83
2024/04/10 05:45:59;;;;;;;4.57;2.30;;;7.80;99.90;;;;;;5480763;26;20522;-82
2024/04/10 05:48:47;;;;;;;9.63;2.80;;;7.90;99.90;;;;;;5488725;26;20516;-82
2024/04/10 05:51:34;;;;;;;7.40;2.17;;;8.10;99.90;;;;;;5482859;26;20594;-83
2024/04/10 05:54:22;;;;;;;7.03;2.77;;;8.20;99.90;;;;;;5478822;26;20632;-82
2024/04/10 05:57:07;;;;;;;17.80;3.80;;;8.20;99.90;;;;;;5479333;26;20565;-82
2024/04/10 05:59:54;;;;;;;14.77;3.17;;;8.30;99.90;;;;;;5478199;26;20527;-81
2024/04/10 06:02:39;;;;;;;5.27;2.63;;;8.40;99.90;;;;;;5484573;26;20514;-82
2024/04/10 06:05:27;;;;;;;6.23;2.43;;;8.40;99.90;;;;;;5481949;26;20491;-83
2024/04/10 06:08:17;;;;;;;6.53;2.70;;;8.50;99.90;;;;;;5479412;26;20505;-82
2024/04/10 06:11:05;;;;;;;6.50;2.27;;;8.50;99.90;;;;;;5494949;26;20484;-81
2024/04/10 06:13:52;;;;;;;9.17;3.00;;;8.50;99.90;;;;;;5494201;26;21075;-82
2024/04/10 06:16:39;;;;;;;7.47;2.93;;;8.60;99.90;;;;;;5488595;26;20472;-81
2024/04/10 06:19:27;;;;;;;11.17;3.27;;;8.60;99.90;;;;;;5482296;26;20502;-82
2024/04/10 06:22:12;;;;;;;24.73;5.20;;;8.60;99.90;;;;;;5487785;26;20522;-81
2024/04/10 06:25:02;;;;;;;7.20;3.50;;;8.70;99.90;;;;;;5485550;26;20680;-82
2024/04/10 06:27:47;;;;;;;7.17;2.83;;;8.80;99.90;;;;;;5481795;26;20516;-81
2024/04/10 06:30:34;;;;;;;11.10;4.00;;;8.80;99.90;;;;;;5487550;26;20480;-81
2024/04/10 06:33:19;;;;;;;5.93;3.60;;;8.90;99.90;;;;;;5476145;26;21084;-85
2024/04/10 06:36:07;;;;;;;7.80;3.07;;;9.00;99.90;;;;;;5471437;26;21076;-83
2024/04/10 06:38:54;;;;;;;11.73;2.73;;;9.10;99.90;;;;;;5480484;26;20570;-82
2024/04/10 06:41:41;;;;;;;9.70;2.57;;;9.20;99.90;;;;;;5484254;26;20501;-82
2024/04/10 06:44:28;;;;;;;8.73;3.53;;;9.50;99.90;;;;;;5485499;26;20490;-82
2024/04/10 06:47:13;;;;;;;5.03;2.43;;;9.60;99.90;;;;;;5484267;26;20528;-80
2024/04/10 06:50:00;;;;;;;8.60;2.60;;;9.60;99.90;;;;;;5489291;26;20517;-81
2024/04/10 06:52:45;;;;;;;7.10;2.50;;;9.70;99.90;;;;;;5489625;26;20555;-81
2024/04/10 06:55:32;;;;;;;7.90;2.63;;;9.90;99.90;;;;;;5482482;26;20509;-82
2024/04/10 06:58:19;;;;;;;11.83;3.40;;;10.00;99.90;;;;;;5476798;26;20506;-82
2024/04/10 07:01:07;;;;;;;10.10;2.67;;;10.10;99.90;;;;;;5474000;26;20496;-82
2024/04/10 07:03:52;;;;;;;8.90;2.50;;;10.20;99.90;;;;;;5482190;26;21069;-82
2024/04/10 07:06:39;;;;;;;11.97;2.47;;;10.30;99.90;;;;;;5472452;26;20532;-84
2024/04/10 07:09:24;;;;;;;9.17;2.03;;;10.30;99.90;;;;;;5495110;26;20510;-82
2024/04/10 07:12:11;;;;;;;6.23;2.33;;;10.40;99.90;;;;;;5480828;26;20501;-82
2024/04/10 07:15:02;;;;;;;9.03;2.50;;;10.50;99.90;;;;;;5495603;26;20482;-82
2024/04/10 07:17:47;;;;;;;9.43;2.30;;;10.70;99.90;;;;;;5487273;26;20516;-84
2024/04/10 07:20:34;;;;;;;15.13;2.27;;;10.90;99.90;;;;;;5499793;26;20528;-84
2024/04/10 07:23:19;;;;;;;11.07;2.20;;;10.80;99.70;;;;;;5493645;26;20505;-85
2024/04/10 07:26:12;;;;;;;10.17;2.60;;;10.80;95.50;;;;;;5491184;26;20533;-84
2024/04/10 07:28:57;;;;;;;7.67;1.77;;;10.60;95.20;;;;;;5476105;26;20486;-84
2024/04/10 07:31:47;;;;;;;14.93;2.80;;;10.70;97.00;;;;;;5477943;26;20557;-84
2024/04/10 07:34:32;;;;;;;9.60;2.67;;;10.70;95.00;;;;;;5470781;26;20510;-84
2024/04/10 07:37:19;;;;;;;13.03;2.77;;;10.60;94.50;;;;;;5482627;26;20477;-84
2024/04/10 07:40:05;;;;;;;10.00;2.57;;;10.50;94.40;;;;;;5493200;26;20540;-83
2024/04/10 07:42:53;;;;;;;6.17;2.43;;;10.60;94.10;;;;;;5495718;26;20806;-83
2024/04/10 07:45:37;;;;;;;10.10;1.93;;;10.60;95.50;;;;;;5501055;26;20473;-84
2024/04/10 07:48:27;;;;;;;8.80;2.03;;;10.70;92.90;;;;;;5510324;26;20562;-83
2024/04/10 07:51:12;;;;;;;8.43;2.53;;;10.90;94.10;;;;;;5508805;26;20549;-83
2024/04/10 07:54:00;;;;;;;8.63;2.00;;;10.90;92.30;;;;;;5497986;26;20474;-85
2024/04/10 07:56:45;;;;;;;14.43;2.40;;;11.00;92.50;;;;;;5489652;26;20474;-85
2024/04/10 07:59:32;;;;;;;10.53;2.73;;;11.00;91.70;;;;;;5491042;26;20559;-84
2024/04/10 08:02:18;;;;;;;10.60;2.33;;;11.20;92.60;;;;;;5490811;26;20568;-85
2024/04/10 08:05:10;;;;;;;14.23;2.70;;;11.00;92.30;;;;;;5487813;26;20528;-84
2024/04/10 08:07:54;;;;;;;8.70;2.63;;;10.90;91.80;;;;;;5487596;26;20539;-83
2024/04/10 08:10:42;;;;;;;5.97;2.10;;;10.80;90.90;;;;;;5500520;26;21065;-84
2024/04/10 08:13:29;;;;;;;13.47;3.00;;;10.90;91.40;;;;;;5486510;26;20573;-84
2024/04/10 08:16:15;;;;;;;12.30;2.70;;;11.20;91.60;;;;;;5487664;26;20494;-84
2024/04/10 08:19:03;;;;;;;8.90;2.50;;;11.40;91.20;;;;;;5483810;26;20527;-84
2024/04/10 08:21:51;;;;;;;8.13;2.93;;;11.20;91.50;;;;;;5487097;26;20529;-84
2024/04/10 08:24:38;;;;;;;9.03;2.33;;;11.20;90.40;;;;;;5473886;26;21206;-84
2024/04/10 08:27:23;;;;;;;9.73;3.30;;;11.40;90.60;;;;;;5485854;26;20511;-84
2024/04/10 08:30:11;;;;;;;9.97;3.00;;;11.80;91.10;;;;;;5488191;26;20478;-83
2024/04/10 08:32:56;;;;;;;7.63;2.57;;;12.00;87.00;;;;;;5487225;26;20485;-83
2024/04/10 08:35:44;;;;;;;9.80;2.80;;;12.00;85.00;;;;;;5497514;26;20547;-83
2024/04/10 08:38:31;;;;;;;12.13;3.50;;;12.00;85.60;;;;;;5489034;26;20507;-84
2024/04/10 08:41:19;;;;;;;10.53;3.30;;;11.90;86.20;;;;;;5481332;26;20490;-84
2024/04/10 08:44:06;;;;;;;12.37;2.70;;;11.80;82.10;;;;;;5484577;26;22497;-84
2024/04/10 08:46:57;;;;;;;13.00;3.33;;;11.80;84.10;;;;;;5478895;26;20590;-84
2024/04/10 08:49:43;;;;;;;7.00;2.33;;;11.70;84.70;;;;;;5484996;26;20521;-84
2024/04/10 08:52:33;;;;;;;10.13;2.47;;;11.80;86.20;;;;;;5492500;26;20588;-83
2024/04/10 08:55:20;;;;;;;9.90;2.50;;;11.90;86.20;;;;;;5487567;26;21052;-83
2024/04/10 08:58:07;;;;;;;13.20;3.80;;;12.20;86.50;;;;;;5483736;26;20596;-83
2024/04/10 09:00:52;;;;;;;12.20;2.60;;;12.50;84.10;;;;;;5480994;26;20490;-82
2024/04/10 09:03:40;;;;;;;11.37;2.50;;;12.70;79.20;;;;;;5490866;26;21144;-82
2024/04/10 09:06:24;;;;;;;11.63;2.80;;;12.90;74.00;;;;;;5480812;26;20525;-83
2024/04/10 09:09:13;;;;;;;13.63;3.10;;;13.10;75.30;;;;;;5486723;26;20507;-81
2024/04/10 09:12:00;;;;;;;14.27;4.20;;;13.30;74.10;;;;;;5481761;26;20507;-83
2024/04/10 09:14:47;;;;;;;7.37;2.83;;;13.40;71.60;;;;;;5489014;26;20469;-83
2024/04/10 09:17:32;;;;;;;14.50;2.20;;;13.50;71.50;;;;;;5479305;26;20471;-82
2024/04/10 09:20:20;;;;;;;6.73;2.60;;;13.70;68.50;;;;;;5483447;26;20847;-84
2024/04/10 09:23:05;;;;;;;7.83;2.67;;;13.70;65.00;;;;;;5473574;26;20519;-82
2024/04/10 09:25:52;;;;;;;13.77;3.10;;;13.70;65.00;;;;;;5496437;26;20483;-83
2024/04/10 09:28:40;;;;;;;11.20;2.20;;;13.90;69.60;;;;;;5488143;26;20492;-84
2024/04/10 09:31:28;;;;;;;8.53;1.90;;;13.70;61.70;;;;;;5492619;26;20523;-83
2024/04/10 09:34:20;;;;;;;11.10;2.77;;;13.70;63.10;;;;;;5479651;26;20891;-82
2024/04/10 09:37:05;;;;;;;11.37;2.70;;;13.50;60.80;;;;;;5480160;26;20477;-82
2024/04/10 09:39:54;;;;;;;11.03;2.43;;;13.40;60.00;;;;;;5490821;26;20504;-81
2024/04/10 09:42:46;;;;;;;7.70;2.00;;;13.30;59.50;;;;;;5486693;26;20534;-84
2024/04/10 09:45:38;;;;;;;7.00;2.37;;;13.30;59.80;;;;;;5486954;26;21113;-84
2024/04/10 09:48:28;;;;;;;6.03;1.70;;;13.30;60.50;;;;;;5483017;26;20533;-83
2024/04/10 09:51:22;;;;;;;10.83;2.17;;;13.30;60.90;;;;;;5479747;26;20512;-81
2024/04/10 09:54:07;;;;;;;8.63;2.30;;;13.50;60.90;;;;;;5492538;26;20503;-84
2024/04/10 09:56:55;;;;;;;8.73;2.67;;;13.60;59.70;;;;;;5496352;26;20569;-84
2024/04/10 09:59:40;;;;;;;8.70;2.57;;;13.70;52.10;;;;;;5469190;26;20504;-82
2024/04/10 10:02:30;;;;;;;5.77;2.00;;;13.80;52.70;;;;;;5469988;26;20580;-84
2024/04/10 10:05:22;;;;;;;9.80;2.63;;;13.90;53.50;;;;;;5475392;26;20880;-82
2024/04/10 10:08:15;;;;;;;6.13;3.07;;;14.00;51.10;;;;;;5480734;26;20483;-81
2024/04/10 10:11:00;;;;;;;11.23;2.23;;;14.00;52.00;;;;;;5490701;26;20562;-83
2024/04/10 10:13:58;;;;;;;16.10;3.33;;;13.80;48.70;;;;;;5490085;26;20494;-83
2024/04/10 10:16:43;;;;;;;8.20;2.57;;;13.90;53.20;;;;;;5492474;26;20512;-84
2024/04/10 10:19:36;;;;;;;14.83;2.80;;;13.70;46.60;;;;;;5489906;26;20513;-84
2024/04/10 10:22:20;;;;;;;9.63;3.10;;;13.50;39.40;;;;;;5504804;26;20499;-82
2024/04/10 10:25:08;;;;;;;7.93;2.27;;;13.40;33.70;;;;;;5493056;26;20596;-84
2024/04/10 10:28:06;;;;;;;6.40;2.20;;;13.50;36.80;;;;;;5500221;26;20506;-84
2024/04/10 10:30:53;;;;;;;10.30;1.97;;;13.90;30.20;;;;;;5501856;26;20477;-84
2024/04/10 10:33:38;;;;;;;15.47;2.80;;;14.00;27.10;;;;;;5500097;26;20821;-83
2024/04/10 10:36:28;;;;;;;5.50;2.20;;;14.20;32.70;;;;;;5501142;26;20535;-84
2024/04/10 10:39:14;;;;;;;5.13;1.97;;;14.60;29.90;;;;;;5494706;26;20541;-82
2024/04/10 10:42:07;;;;;;;8.93;3.27;;;15.00;29.30;;;;;;5494865;26;20544;-82
2024/04/10 10:45:01;;;;;;;7.10;1.80;;;15.20;24.80;;;;;;5503233;26;20498;-83
2024/04/10 10:47:49;;;;;;;7.47;1.83;;;14.70;23.80;;;;;;5498861;26;20507;-84
2024/04/10 10:50:33;;;;;;;10.13;2.20;;;14.60;24.50;;;;;;5498044;26;20472;-84
2024/04/10 10:53:24;;;;;;;6.47;1.93;;;14.70;23.10;;;;;;5504449;26;20549;-84
2024/04/10 10:56:08;;;;;;;4.83;1.80;;;15.10;27.30;;;;;;5493062;26;20481;-84
2024/04/10 10:58:56;;;;;;;4.40;1.20;;;15.20;23.90;;;;;;5498848;25;20553;-83
2024/04/10 11:01:41;;;;;;;8.03;1.97;;;15.10;21.60;;;;;;5502727;21;21016;-74
2024/04/10 11:04:30;;;;;;;6.50;1.70;;;15.00;19.70;;;;;;5397539;26;20494;-75
2024/04/10 11:07:15;;;;;;;2.70;1.03;;;14.90;15.60;;;;;;5396826;26;20886;-74
2024/04/10 11:10:12;;;;;;;3.83;1.30;;;14.80;14.00;;;;;;5407091;26;20494;-75
2024/04/10 11:13:01;;;;;;;2.73;1.37;;;14.80;13.50;;;;;;5407490;26;20489;-75
2024/04/10 11:15:49;;;;;;;5.47;1.60;;;14.90;12.90;;;;;;5423623;21;20506;-89
2024/04/10 11:18:34;;;;;;;6.90;1.67;;;15.10;13.10;;;;;;5428919;26;20598;-89
2024/04/10 11:21:21;;;;;;;3.20;1.10;;;15.40;12.60;;;;;;5433783;26;20584;-89
2024/04/10 11:24:06;;;;;;;4.63;1.60;;;15.50;11.20;;;;;;5418541;26;20507;-88
2024/04/10 11:26:56;;;;;;;5.70;1.67;;;15.80;14.00;;;;;;5424000;26;20551;-88
2024/04/10 11:29:40;;;;;;;4.70;1.27;;;15.70;14.20;;;;;;5419246;26;20534;-90
2024/04/10 11:32:28;;;;;;;6.13;1.07;;;15.80;13.60;;;;;;5414626;26;20554;-89
2024/04/10 11:35:13;;;;;;;3.60;1.33;;;15.70;11.40;;;;;;5409113;26;20528;-90
2024/04/10 11:38:00;;;;;;;6.97;1.67;;;15.50;11.90;;;;;;5409733;26;20528;-89
2024/04/10 11:40:45;;;;;;;5.67;1.30;;;15.40;11.10;;;;;;5411018;26;20546;-88
2024/04/10 11:43:35;;;;;;;4.50;1.53;;;15.20;12.90;;;;;;5414651;26;20549;-88
2024/04/10 11:46:20;;;;;;;3.03;1.30;;;15.00;12.20;;;;;;5429212;26;20540;-91
2024/04/10 11:49:07;;;;;;;7.87;1.83;;;14.90;13.50;;;;;;5421701;26;20922;-90
2024/04/10 11:51:53;;;;;;;4.47;1.60;;;14.80;12.60;;;;;;5408029;26;20544;-89
2024/04/10 11:54:41;;;;;;;5.13;1.70;;;14.70;13.00;;;;;;5404572;26;20498;-90
2024/04/10 11:57:25;;;;;;;3.53;1.60;;;14.70;14.20;;;;;;5412407;26;21090;-89
2024/04/10 12:00:16;;;;;;;4.63;1.80;;;14.60;12.10;;;;;;5406778;26;20853;-90
2024/04/10 12:03:02;;;;;;;4.43;1.50;;;14.50;12.70;;;;;;5409278;26;20486;-89
2024/04/10 12:05:49;;;;;;;9.53;1.83;;;14.30;12.90;;;;;;5412035;26;20604;-89
2024/04/10 12:08:36;;;;;;;6.37;1.50;;;14.30;15.00;;;;;;5408501;26;20497;-90
2024/04/10 12:11:23;;;;;;;6.37;1.40;;;14.40;14.50;;;;;;5413547;26;20509;-90
2024/04/10 12:14:08;;;;;;;9.53;1.67;;;14.40;13.30;;;;;;5410066;26;21040;-89
2024/04/10 12:16:59;;;;;;;3.50;1.10;;;14.40;14.00;;;;;;5405707;26;20507;-91
2024/04/10 12:19:45;;;;;;;6.37;2.30;;;14.40;13.90;;;;;;5414974;26;20534;-91
2024/04/10 12:22:32;;;;;;;7.23;1.60;;;14.50;14.80;;;;;;5408165;26;20556;-90
2024/04/10 12:25:17;;;;;;;3.20;1.70;;;14.60;13.40;;;;;;5401697;26;20557;-90
2024/04/10 12:28:05;;;;;;;12.63;2.20;;;14.80;14.70;;;;;;5407451;26;20516;-90
2024/04/10 12:30:50;;;;;;;4.97;1.80;;;15.10;13.30;;;;;;5402208;26;21228;-89
2024/04/10 12:33:40;;;;;;;5.00;1.50;;;15.30;12.90;;;;;;5407547;26;20515;-91
2024/04/10 12:39:31;;;;;;;4.50;1.53;;;15.50;11.20;;;;;;5410760;26;20497;-89
2024/04/10 12:42:18;;;;;;;3.13;1.17;;;15.70;11.40;;;;;;5403900;26;20511;-90
2024/04/10 12:45:07;;;;;;;10.90;1.87;;;15.90;8.90;;;;;;5415700;26;21151;-89
2024/04/10 12:47:52;;;;;;;3.80;1.23;;;16.10;9.00;;;;;;5406900;26;20502;-90
2024/04/10 12:50:42;;;;;;;5.00;1.90;;;16.10;7.30;;;;;;5420254;26;20853;-90
2024/04/10 12:53:27;;;;;;;7.07;1.87;;;16.30;8.20;;;;;;5417948;26;20523;-90
2024/04/10 12:56:14;;;;;;;6.03;1.77;;;16.40;8.40;;;;;;5427647;26;20562;-90
2024/04/10 12:58:59;;;;;;;2.47;1.03;;;16.80;10.10;;;;;;5407346;26;20862;-88
2024/04/10 13:01:49;;;;;;;5.07;2.17;;;17.10;9.40;;;;;;5410929;26;21146;-90
2024/04/10 13:04:40;;;;;;;4.20;1.23;;;17.40;9.10;;;;;;5410988;26;20505;-90
2024/04/10 13:07:30;;;;;;;3.83;1.87;;;17.60;8.00;;;;;;5408409;26;20516;-89
2024/04/10 13:10:16;;;;;;;5.20;1.67;;;17.90;7.80;;;;;;5409592;26;20477;-90
2024/04/10 13:13:03;;;;;;;5.70;1.60;;;18.20;6.60;;;;;;5415916;26;20491;-90
2024/04/10 13:15:58;;;;;;;3.60;1.17;;;18.40;6.10;;;;;;5407311;26;20499;-89
2024/04/10 13:18:46;;;;;;;5.60;1.10;;;18.70;3.90;;;;;;5419376;26;20516;-89
2024/04/10 13:21:31;;;;;;;3.13;1.37;;;19.00;4.80;;;;;;5422048;26;20522;-90
2024/04/10 13:24:20;;;;;;;9.87;2.30;;;18.90;2.00;;;;;;5415832;26;20609;-87
2024/04/10 13:27:09;;;;;;;5.00;1.53;;;19.20;2.20;;;;;;5407191;26;20502;-88
2024/04/10 13:29:56;;;;;;;3.47;1.23;;;19.20;2.20;;;;;;5418830;26;20508;-87
2024/04/10 13:32:42;;;;;;;5.33;1.60;;;19.30;2.30;;;;;;5413080;26;20580;-87
2024/04/10 13:35:29;;;;;;;4.83;1.40;;;19.50;1.00;;;;;;5416539;26;20574;-88
2024/04/10 13:38:14;;;;;;;6.10;1.57;;;19.30;1.00;;;;;;5413438;26;20515;-88
2024/04/10 13:41:08;;;;;;;6.30;1.90;;;19.30;1.00;;;;;;5423460;26;20536;-87
2024/04/10 13:43:54;;;;;;;4.07;1.30;;;19.10;1.00;;;;;;5414548;26;20553;-88
2024/04/10 13:46:42;;;;;;;4.87;1.40;;;19.20;1.40;;;;;;5427548;26;20549;-87
2024/04/10 13:49:26;;;;;;;6.47;1.60;;;18.90;1.60;;;;;;5415950;26;21033;-87
2024/04/10 13:52:13;;;;;;;3.53;1.50;;;18.90;1.40;;;;;;5418660;26;20521;-89
2024/04/10 13:54:58;;;;;;;3.70;1.30;;;18.80;1.90;;;;;;5410449;26;20535;-88
2024/04/10 13:57:48;;;;;;;8.00;1.63;;;19.10;1.00;;;;;;5414823;26;20576;-87
2024/04/10 14:00:32;;;;;;;2.10;1.10;;;19.00;1.00;;;;;;5415325;26;20566;-88
2024/04/10 14:03:20;;;;;;;4.93;1.40;;;19.20;1.00;;;;;;5407522;26;20522;-88
2024/04/10 14:06:05;;;;;;;7.10;1.37;;;19.40;1.00;;;;;;5418892;26;20576;-88
2024/04/10 14:08:53;;;;;;;4.23;1.53;;;19.60;1.00;;;;;;5420596;26;20522;-88
2024/04/10 14:11:38;;;;;;;2.40;1.10;;;19.90;1.00;;;;;;5421157;26;20513;-88
2024/04/10 14:14:28;;;;;;;3.17;0.97;;;19.90;1.00;;;;;;5423606;26;20518;-88
2024/04/10 14:17:13;;;;;;;4.63;1.30;;;19.80;1.00;;;;;;5415622;26;20589;-88
2024/04/10 14:20:01;;;;;;;3.90;1.20;;;19.80;1.00;;;;;;5418281;26;20507;-88
2024/04/10 14:22:48;;;;;;;4.33;1.50;;;20.00;1.00;;;;;;5414169;26;20559;-88
2024/04/10 14:25:39;;;;;;;4.13;1.50;;;20.00;1.00;;;;;;5409160;26;20925;-88
2024/04/10 14:28:28;;;;;;;3.60;1.40;;;20.20;1.00;;;;;;5413501;26;20576;-88
2024/04/10 14:31:15;;;;;;;5.20;1.10;;;19.60;1.00;;;;;;5420207;26;20539;-88
2024/04/10 14:34:03;;;;;;;5.87;1.83;;;19.50;1.10;;;;;;5417495;26;20570;-88
2024/04/10 14:36:47;;;;;;;3.70;1.27;;;19.60;1.00;;;;;;5416393;26;21081;-87
2024/04/10 14:39:35;;;;;;;5.00;1.40;;;19.40;1.00;;;;;;5411696;26;20510;-88